createdAt,value
2022-11-03T00:01:09.729Z,2.60
2022-11-03T00:03:11.344Z,2.75
2022-11-03T00:05:31.641Z,4.47
2022-11-03T00:07:33.236Z,3.15
2022-11-03T00:09:35.138Z,2.92
2022-11-03T00:11:38.663Z,3.80
2022-11-03T00:13:42.914Z,2.85
2022-11-03T00:15:50.686Z,4.82
2022-11-03T00:17:52.331Z,3.92
2022-11-03T00:19:53.906Z,2.50
2022-11-03T00:21:58.288Z,3.35
2022-11-03T00:24:02.445Z,3.22
2022-11-03T00:26:15.801Z,2.40
2022-11-03T00:28:17.393Z,2.65
2022-11-03T00:30:19.012Z,2.33
2022-11-03T00:32:20.713Z,3.10
2022-11-03T00:34:22.386Z,2.42
2022-11-03T00:36:27.398Z,5.75
2022-11-03T00:38:29.728Z,3.88
2022-11-03T00:40:31.459Z,4.13
2022-11-03T00:42:35.000Z,2.50
2022-11-03T00:44:36.602Z,2.47
2022-11-03T00:46:38.316Z,2.25
2022-11-03T00:48:40.323Z,3.05
2022-11-03T00:50:42.001Z,2.50
2022-11-03T00:52:43.630Z,2.20
2022-11-03T00:54:45.583Z,3.55
2022-11-03T00:56:47.298Z,2.53
2022-11-03T00:58:49.811Z,2.22
2022-11-03T01:00:58.032Z,3.10
2022-11-03T01:02:59.663Z,2.70
2022-11-03T01:05:39.746Z,2.55
2022-11-03T01:07:41.326Z,2.28
2022-11-03T01:09:43.460Z,3.58
2022-11-03T01:11:57.118Z,3.20
2022-11-03T01:13:59.440Z,2.45
2022-11-03T01:16:01.058Z,2.20
2022-11-03T01:18:02.651Z,2.22
2022-11-03T01:20:04.595Z,2.42
2022-11-03T01:22:09.692Z,3.15
2022-11-03T01:24:12.964Z,2.47
2022-11-03T01:26:15.065Z,2.85
2022-11-03T01:28:16.920Z,3.25
2022-11-03T01:30:18.517Z,2.47
2022-11-03T01:32:20.106Z,3.42
2022-11-03T01:34:22.698Z,2.97
2022-11-03T01:36:24.941Z,2.47
2022-11-03T01:38:26.974Z,2.40
2022-11-03T01:40:28.601Z,3.05
2022-11-03T01:42:30.222Z,3.15
2022-11-03T01:44:35.247Z,3.85
2022-11-03T01:46:49.734Z,1.92
2022-11-03T01:49:08.881Z,3.10
2022-11-03T01:51:14.124Z,3.78
2022-11-03T01:53:18.156Z,2.42
2022-11-03T01:55:29.542Z,2.17
2022-11-03T01:57:40.042Z,2.55
2022-11-03T01:59:43.115Z,3.22
2022-11-03T02:01:45.807Z,2.50
2022-11-03T02:03:59.677Z,2.55
2022-11-03T02:06:02.591Z,4.85
2022-11-03T02:08:22.751Z,5.10
2022-11-03T02:10:25.330Z,3.13
2022-11-03T02:12:27.057Z,2.63
2022-11-03T02:14:28.657Z,3.08
2022-11-03T02:16:32.651Z,2.17
2022-11-03T02:18:34.935Z,2.90
2022-11-03T02:20:36.778Z,2.72
2022-11-03T02:22:38.325Z,2.30
2022-11-03T02:24:54.285Z,2.47
2022-11-03T02:26:56.991Z,2.78
2022-11-03T02:28:58.716Z,2.60
2022-11-03T02:31:12.551Z,2.78
2022-11-03T02:33:33.135Z,4.15
2022-11-03T02:35:54.786Z,2.47
2022-11-03T02:38:00.974Z,2.72
2022-11-03T02:40:10.381Z,2.95
2022-11-03T02:42:13.265Z,3.17
2022-11-03T02:44:18.080Z,2.75
2022-11-03T02:46:20.264Z,2.45
2022-11-03T02:48:22.134Z,2.63
2022-11-03T02:50:30.958Z,2.20
2022-11-03T02:52:41.314Z,4.45
2022-11-03T02:54:46.163Z,2.20
2022-11-03T02:56:57.527Z,2.40
2022-11-03T02:59:06.857Z,2.88
2022-11-03T03:01:23.588Z,2.42
2022-11-03T03:03:30.435Z,2.10
2022-11-03T03:05:35.794Z,3.95
2022-11-03T03:07:43.681Z,2.72
2022-11-03T03:09:53.627Z,2.33
2022-11-03T03:11:58.798Z,2.35
2022-11-03T03:14:00.526Z,2.10
2022-11-03T03:16:12.374Z,2.58
2022-11-03T03:18:39.862Z,2.55
2022-11-03T03:21:05.395Z,2.78
2022-11-03T03:23:21.382Z,2.83
2022-11-03T03:25:34.393Z,2.72
2022-11-03T03:27:39.407Z,2.10
2022-11-03T03:29:52.610Z,2.47
2022-11-03T03:32:00.925Z,2.72
2022-11-03T03:34:16.297Z,2.47
2022-11-03T03:36:28.857Z,2.40
2022-11-03T03:38:41.418Z,2.05
2022-11-03T03:40:46.764Z,2.38
2022-11-03T03:42:49.945Z,4.20
2022-11-03T03:44:52.758Z,3.15
2022-11-03T03:47:04.237Z,1.98
2022-11-03T03:49:06.767Z,2.10
2022-11-03T03:51:09.959Z,2.30
2022-11-03T03:53:13.170Z,2.63
2022-11-03T03:55:20.451Z,2.58
2022-11-03T03:57:27.470Z,1.90
2022-11-03T03:59:29.289Z,2.42
2022-11-03T04:01:31.017Z,1.75
2022-11-03T04:03:32.725Z,1.83
2022-11-03T04:05:34.318Z,4.60
2022-11-03T04:07:47.924Z,2.85
2022-11-03T04:09:49.623Z,2.42
2022-11-03T04:12:09.885Z,1.77
2022-11-03T04:14:30.151Z,3.37
2022-11-03T04:16:50.477Z,1.70
2022-11-03T04:19:10.837Z,2.10
2022-11-03T04:21:32.687Z,2.67
2022-11-03T04:23:34.290Z,2.05
2022-11-03T04:25:36.000Z,2.15
2022-11-03T04:27:38.061Z,1.80
2022-11-03T04:29:39.801Z,2.30
2022-11-03T04:31:41.394Z,2.10
2022-11-03T04:33:43.801Z,2.47
2022-11-03T04:35:46.604Z,1.88
2022-11-03T04:37:54.195Z,2.70
2022-11-03T04:40:00.738Z,3.20
2022-11-03T04:42:02.394Z,1.80
2022-11-03T04:44:11.349Z,2.40
2022-11-03T04:46:17.596Z,3.15
2022-11-03T04:48:22.425Z,3.00
2022-11-03T04:50:24.757Z,5.63
2022-11-03T04:52:26.349Z,2.22
2022-11-03T04:54:28.058Z,2.35
2022-11-03T04:56:30.547Z,3.30
2022-11-03T04:58:36.470Z,6.30
2022-11-03T05:00:39.708Z,2.53
2022-11-03T05:02:42.138Z,10.35
2022-11-03T05:04:44.016Z,4.78
2022-11-03T05:06:53.101Z,10.32
2022-11-03T05:09:11.295Z,9.88
2022-11-03T05:11:24.578Z,4.93
2022-11-03T05:13:28.751Z,10.45
2022-11-03T05:15:42.519Z,4.70
2022-11-03T05:17:44.138Z,6.78
2022-11-03T05:19:45.790Z,6.10
2022-11-03T05:21:50.105Z,7.30
2022-11-03T05:23:58.094Z,2.53
2022-11-03T05:25:59.802Z,7.35
2022-11-03T05:28:01.531Z,6.15
2022-11-03T05:30:04.713Z,15.80
2022-11-03T05:32:18.712Z,4.43
2022-11-03T05:34:41.560Z,2.83
2022-11-03T05:36:43.211Z,6.05
2022-11-03T05:38:45.076Z,6.03
2022-11-03T05:40:54.127Z,4.13
2022-11-03T05:43:01.487Z,5.78
2022-11-03T05:45:11.247Z,5.00
2022-11-03T05:47:19.635Z,10.18
2022-11-03T05:49:21.293Z,7.63
2022-11-03T05:51:27.599Z,6.57
2022-11-03T05:53:30.605Z,8.15
2022-11-03T05:55:35.821Z,5.40
2022-11-03T05:57:37.451Z,5.45
2022-11-03T05:59:39.138Z,7.93
2022-11-03T06:01:41.465Z,8.05
2022-11-03T06:03:43.240Z,7.53
2022-11-03T06:05:46.260Z,13.88
2022-11-03T06:07:49.641Z,11.57
2022-11-03T06:09:55.668Z,14.60
2022-11-03T06:12:02.788Z,6.18
2022-11-03T06:14:25.027Z,12.68
2022-11-03T06:16:41.354Z,7.78
2022-11-03T06:18:42.987Z,7.85
2022-11-03T06:20:52.143Z,8.05
2022-11-03T06:22:57.263Z,5.85
2022-11-03T06:25:18.921Z,6.00
2022-11-03T06:27:27.018Z,5.25
2022-11-03T06:29:32.252Z,8.25
2022-11-03T06:31:34.221Z,2.88
2022-11-03T06:33:36.331Z,8.90
2022-11-03T06:35:37.941Z,4.20
2022-11-03T06:37:39.558Z,5.55
2022-11-03T06:39:41.339Z,10.40
2022-11-03T06:41:43.011Z,8.75
2022-11-03T06:43:45.177Z,4.80
2022-11-03T06:45:50.921Z,5.90
2022-11-03T06:47:54.093Z,5.22
2022-11-03T06:49:58.049Z,3.40
2022-11-03T06:52:06.147Z,6.07
2022-11-03T06:54:11.383Z,5.00
2022-11-03T06:56:16.771Z,7.18
2022-11-03T06:58:32.654Z,6.20
2022-11-03T07:00:40.966Z,4.75
2022-11-03T07:03:08.622Z,5.40
2022-11-03T07:05:26.212Z,3.83
2022-11-03T07:07:28.104Z,4.63
2022-11-03T07:09:29.810Z,4.30
2022-11-03T07:11:58.307Z,7.03
2022-11-03T07:14:11.607Z,7.85
2022-11-03T07:16:27.563Z,7.97
2022-11-03T07:18:38.676Z,4.72
2022-11-03T07:22:42.561Z,4.40
2022-11-03T07:24:46.911Z,4.07
2022-11-03T07:26:49.469Z,3.25
2022-11-03T07:28:51.735Z,4.78
2022-11-03T07:30:53.425Z,3.67
2022-11-03T07:33:00.575Z,5.47
2022-11-03T07:35:17.542Z,6.05
2022-11-03T07:37:21.080Z,5.40
2022-11-03T07:39:22.755Z,3.53
2022-11-03T07:41:32.839Z,4.57
2022-11-03T07:43:38.165Z,6.35
2022-11-03T07:45:47.920Z,6.78
2022-11-03T07:47:49.533Z,3.78
2022-11-03T07:49:51.468Z,4.20
2022-11-03T07:51:54.431Z,5.43
2022-11-03T07:54:19.401Z,4.15
2022-11-03T07:56:22.213Z,4.57
2022-11-03T07:58:29.347Z,3.75
2022-11-03T08:00:32.083Z,5.97
2022-11-03T08:02:52.086Z,2.95
2022-11-03T08:04:53.744Z,3.42
2022-11-03T08:06:55.652Z,2.67
2022-11-03T08:08:57.561Z,3.50
2022-11-03T08:10:59.265Z,2.35
2022-11-03T08:13:00.892Z,3.05
2022-11-03T08:15:02.523Z,3.88
2022-11-03T08:17:04.732Z,4.35
2022-11-03T08:19:06.853Z,3.05
2022-11-03T08:21:08.524Z,2.60
2022-11-03T08:23:25.364Z,2.63
2022-11-03T08:25:27.831Z,2.88
2022-11-03T08:27:29.440Z,3.50
2022-11-03T08:29:31.027Z,2.58
2022-11-03T08:31:32.722Z,3.55
2022-11-03T08:33:35.340Z,4.43
2022-11-03T08:35:36.961Z,3.03
2022-11-03T08:37:38.561Z,2.40
2022-11-03T08:39:40.179Z,3.13
2022-11-03T08:41:41.778Z,5.18
2022-11-03T08:43:43.391Z,3.28
2022-11-03T08:45:45.706Z,2.85
2022-11-03T08:47:47.416Z,9.68
2022-11-03T08:49:49.084Z,2.65
2022-11-03T08:51:50.671Z,3.78
2022-11-03T08:53:54.030Z,4.97
2022-11-03T08:55:56.287Z,5.72
2022-11-03T08:57:57.876Z,2.38
2022-11-03T08:59:59.567Z,4.63
2022-11-03T09:02:01.220Z,4.30
2022-11-03T09:04:03.550Z,4.30
2022-11-03T09:06:06.194Z,2.70
2022-11-03T09:10:34.388Z,7.10
2022-11-03T09:12:37.618Z,3.60
2022-11-03T09:14:39.304Z,3.28
2022-11-03T09:16:40.911Z,2.47
2022-11-03T09:18:42.667Z,3.63
2022-11-03T09:20:44.309Z,2.72
2022-11-03T09:22:45.905Z,5.78
2022-11-03T09:24:47.523Z,4.57
2022-11-03T09:26:49.141Z,4.35
2022-11-03T09:28:50.856Z,3.03
2022-11-03T09:30:52.447Z,3.60
2022-11-03T09:32:54.125Z,5.43
2022-11-03T09:34:55.765Z,1.95
2022-11-03T09:36:57.390Z,4.80
2022-11-03T09:38:59.034Z,4.63
2022-11-03T09:41:01.258Z,9.70
2022-11-03T09:43:03.119Z,2.50
2022-11-03T09:45:07.699Z,5.10
2022-11-03T09:47:22.606Z,3.05
2022-11-03T09:49:24.317Z,2.58
2022-11-03T09:51:27.712Z,3.35
2022-11-03T09:53:30.450Z,5.03
2022-11-03T09:55:33.829Z,3.13
2022-11-03T09:57:36.771Z,2.33
2022-11-03T09:59:39.273Z,3.88
2022-11-03T10:01:41.982Z,5.05
2022-11-03T10:03:44.270Z,4.05
2022-11-03T10:05:47.190Z,4.97
2022-11-03T10:07:49.240Z,2.50
2022-11-03T10:09:53.442Z,4.13
2022-11-03T10:11:55.513Z,3.15
2022-11-03T10:13:58.751Z,4.45
2022-11-03T10:16:06.825Z,2.47
2022-11-03T10:18:10.012Z,3.00
2022-11-03T10:20:14.179Z,4.18
2022-11-03T10:22:16.466Z,2.58
2022-11-03T10:24:18.973Z,3.35
2022-11-03T10:26:20.946Z,2.88
2022-11-03T10:28:26.889Z,2.85
2022-11-03T10:30:32.442Z,4.53
2022-11-03T10:32:35.040Z,2.08
2022-11-03T10:34:39.172Z,2.72
2022-11-03T10:36:40.801Z,2.85
2022-11-03T10:38:43.648Z,7.57
2022-11-03T10:40:48.820Z,2.17
2022-11-03T10:42:59.398Z,1.60
2022-11-03T10:45:30.412Z,1.67
2022-11-03T10:47:35.933Z,3.42
2022-11-03T10:49:40.839Z,5.13
2022-11-03T10:51:48.659Z,4.80
2022-11-03T10:53:50.243Z,1.98
2022-11-03T10:55:51.914Z,7.35
2022-11-03T10:57:57.873Z,5.13
2022-11-03T10:59:59.527Z,10.15
2022-11-03T11:02:01.652Z,2.67
2022-11-03T11:04:04.895Z,7.57
2022-11-03T11:06:16.358Z,3.92
2022-11-03T11:08:23.490Z,6.50
2022-11-03T11:10:29.980Z,3.53
2022-11-03T11:12:31.663Z,3.00
2022-11-03T11:14:39.354Z,9.00
2022-11-03T11:17:27.709Z,3.70
2022-11-03T11:19:30.512Z,2.97
2022-11-03T11:21:41.006Z,6.32
2022-11-03T11:23:44.506Z,2.17
2022-11-03T11:26:11.333Z,1.90
2022-11-03T11:28:19.000Z,4.57
2022-11-03T11:30:20.666Z,2.28
2022-11-03T11:32:58.122Z,2.88
2022-11-03T11:34:59.705Z,2.60
2022-11-03T11:37:01.339Z,3.40
2022-11-03T11:39:05.087Z,3.03
2022-11-03T11:41:06.734Z,2.17
2022-11-03T11:43:13.144Z,7.22
2022-11-03T11:45:14.745Z,3.75
2022-11-03T11:47:49.010Z,2.95
2022-11-03T11:50:05.847Z,4.00
2022-11-03T11:52:10.550Z,2.75
2022-11-03T11:54:19.804Z,5.65
2022-11-03T11:56:21.449Z,4.05
2022-11-03T11:58:35.502Z,1.85
2022-11-03T12:00:37.157Z,3.40
2022-11-03T12:02:38.768Z,4.70
2022-11-03T12:04:45.756Z,4.32
2022-11-03T12:06:47.374Z,2.22
2022-11-03T12:08:48.991Z,4.57
2022-11-03T12:10:55.780Z,1.58
2022-11-03T12:12:59.886Z,1.88
2022-11-03T12:15:01.473Z,2.85
2022-11-03T12:17:18.377Z,1.50
2022-11-03T12:19:34.782Z,3.50
2022-11-03T12:21:47.767Z,3.50
2022-11-03T12:23:49.454Z,2.00
2022-11-03T12:25:51.072Z,2.58
2022-11-03T12:27:52.710Z,2.65
2022-11-03T12:30:02.293Z,3.25
2022-11-03T12:32:04.170Z,1.75
2022-11-03T12:34:05.771Z,3.13
2022-11-03T12:36:08.285Z,3.47
2022-11-03T12:38:09.895Z,2.70
2022-11-03T12:40:14.056Z,2.05
2022-11-03T12:42:15.646Z,4.20
2022-11-03T12:44:17.295Z,1.80
2022-11-03T12:46:20.766Z,2.35
2022-11-03T12:48:22.983Z,6.35
2022-11-03T12:50:24.577Z,4.65
2022-11-03T12:52:26.454Z,1.77
2022-11-03T12:54:28.038Z,6.43
2022-11-03T12:56:29.647Z,2.53
2022-11-03T12:58:31.495Z,5.05
2022-11-03T13:00:33.102Z,2.25
2022-11-03T13:02:34.933Z,2.13
2022-11-03T13:04:36.652Z,4.85
2022-11-03T13:06:38.315Z,2.80
2022-11-03T13:08:40.370Z,2.17
2022-11-03T13:10:42.128Z,1.52
2022-11-03T13:12:45.182Z,3.78
2022-11-03T13:14:48.758Z,2.60
2022-11-03T13:16:50.556Z,1.50
2022-11-03T13:18:52.202Z,2.33
2022-11-03T13:20:53.795Z,2.88
2022-11-03T13:22:55.385Z,5.22
2022-11-03T13:24:57.090Z,1.67
2022-11-03T13:26:58.760Z,2.70
2022-11-03T13:29:00.456Z,3.35
2022-11-03T13:31:02.184Z,4.82
2022-11-03T13:33:04.421Z,3.08
2022-11-03T13:35:09.526Z,3.05
2022-11-03T13:37:15.088Z,1.67
2022-11-03T13:39:16.701Z,2.28
2022-11-03T13:41:18.307Z,1.90
2022-11-03T13:43:21.183Z,3.00
2022-11-03T13:45:23.769Z,1.98
2022-11-03T13:47:34.357Z,1.88
2022-11-03T13:52:08.644Z,3.05
2022-11-03T13:56:32.466Z,5.07
2022-11-03T14:00:55.767Z,3.50
2022-11-03T14:05:19.064Z,3.58
2022-11-03T14:07:20.677Z,2.95
2022-11-03T14:09:22.389Z,2.03
2022-11-03T14:11:42.793Z,8.77
2022-11-03T14:13:44.441Z,4.28
2022-11-03T14:15:46.109Z,2.28
2022-11-03T14:17:47.793Z,2.03
2022-11-03T14:19:52.713Z,2.78
2022-11-03T14:21:55.170Z,2.33
2022-11-03T14:23:56.833Z,3.00
2022-11-03T14:26:13.133Z,2.83
2022-11-03T14:28:25.891Z,3.95
2022-11-03T14:30:27.912Z,3.63
2022-11-03T14:32:29.533Z,1.80
2022-11-03T14:34:31.273Z,2.33
2022-11-03T14:36:33.015Z,2.45
2022-11-03T14:38:34.624Z,3.67
2022-11-03T14:40:55.001Z,4.95
2022-11-03T14:42:56.588Z,2.20
2022-11-03T14:44:58.233Z,2.40
2022-11-03T14:47:03.636Z,5.47
2022-11-03T14:49:05.350Z,4.40
2022-11-03T14:51:06.958Z,2.53
2022-11-03T14:53:08.572Z,1.90
2022-11-03T14:55:11.079Z,5.03
2022-11-03T14:57:12.706Z,2.67
2022-11-03T14:59:15.321Z,2.58
2022-11-03T15:01:17.993Z,3.53
2022-11-03T15:03:19.784Z,2.03
2022-11-03T15:05:40.235Z,2.45
2022-11-03T15:07:41.830Z,2.88
2022-11-03T15:09:43.460Z,2.65
2022-11-03T15:11:45.751Z,2.33
2022-11-03T15:13:49.913Z,2.42
2022-11-03T15:15:53.029Z,2.83
2022-11-03T15:17:57.663Z,2.63
2022-11-03T15:20:03.697Z,2.15
2022-11-03T15:22:05.331Z,2.00
2022-11-03T15:26:28.916Z,2.25
2022-11-03T15:28:30.548Z,2.95
2022-11-03T15:30:32.279Z,2.20
2022-11-03T15:32:36.493Z,1.95
2022-11-03T15:34:38.281Z,3.05
2022-11-03T15:36:39.932Z,1.80
2022-11-03T15:38:41.556Z,2.35
2022-11-03T15:40:43.229Z,2.50
2022-11-03T15:42:44.865Z,2.33
2022-11-03T15:44:46.467Z,2.90
2022-11-03T15:46:48.392Z,3.13
2022-11-03T15:48:50.077Z,3.25
2022-11-03T15:50:51.668Z,2.80
2022-11-03T15:52:54.528Z,4.40
2022-11-03T15:54:56.225Z,2.70
2022-11-03T15:56:57.901Z,3.25
2022-11-03T15:58:59.605Z,5.45
2022-11-03T16:01:03.048Z,8.63
2022-11-03T16:03:05.437Z,4.00
2022-11-03T16:05:08.109Z,5.25
2022-11-03T16:07:09.724Z,5.93
2022-11-03T16:09:11.330Z,12.95
2022-11-03T16:11:14.225Z,4.63
2022-11-03T16:13:15.997Z,5.38
2022-11-03T16:15:17.612Z,6.85
2022-11-03T16:17:20.970Z,6.75
2022-11-03T16:19:22.570Z,3.17
2022-11-03T16:21:24.526Z,3.00
2022-11-03T16:23:26.272Z,2.72
2022-11-03T16:25:27.870Z,5.22
2022-11-03T16:27:29.705Z,5.18
2022-11-03T16:29:31.353Z,4.70
2022-11-03T16:31:32.986Z,7.00
2022-11-03T16:33:34.778Z,3.05
2022-11-03T16:35:36.497Z,7.40
2022-11-03T16:37:38.442Z,4.68
2022-11-03T16:39:40.038Z,4.97
2022-11-03T16:41:41.638Z,5.53
2022-11-03T16:43:43.239Z,4.30
2022-11-03T16:45:44.850Z,9.05
2022-11-03T16:47:47.678Z,16.80
2022-11-03T16:49:52.846Z,17.85
2022-11-03T16:51:54.839Z,26.73
2022-11-03T16:53:58.147Z,17.35
2022-11-03T16:55:59.784Z,17.75
2022-11-03T16:58:01.390Z,15.55
2022-11-03T17:00:03.728Z,13.88
2022-11-03T17:02:05.508Z,13.18
2022-11-03T17:04:07.276Z,8.60
2022-11-03T17:06:08.952Z,9.43
2022-11-03T17:08:38.570Z,8.73
2022-11-03T17:10:32.301Z,10.30
2022-11-03T17:12:33.918Z,12.02
2022-11-03T17:14:36.183Z,6.95
2022-11-03T17:16:37.787Z,6.93
2022-11-03T17:18:39.548Z,7.32
2022-11-03T17:20:41.146Z,6.30
2022-11-03T17:22:42.867Z,10.48
2022-11-03T17:24:44.497Z,14.57
2022-11-03T17:26:55.598Z,5.20
2022-11-03T17:30:59.335Z,6.38
2022-11-03T17:33:06.171Z,8.95
2022-11-03T17:35:23.583Z,9.60
2022-11-03T17:37:25.814Z,6.30
2022-11-03T17:39:32.087Z,8.88
2022-11-03T17:41:36.072Z,8.75
2022-11-03T17:43:40.389Z,7.18
2022-11-03T17:45:41.999Z,7.75
2022-11-03T17:47:43.851Z,5.68
2022-11-03T17:49:46.592Z,5.93
2022-11-03T17:51:48.220Z,11.85
2022-11-03T17:53:49.968Z,9.15
2022-11-03T17:56:23.460Z,19.17
2022-11-03T17:58:14.598Z,15.02
2022-11-03T18:00:20.803Z,16.85
2022-11-03T18:02:28.474Z,10.02
2022-11-03T18:04:30.291Z,10.85
2022-11-03T18:06:31.903Z,12.63
2022-11-03T18:08:33.496Z,9.90
2022-11-03T18:10:39.697Z,13.98
2022-11-03T18:13:03.933Z,12.32
2022-11-03T18:15:10.671Z,6.85
2022-11-03T18:17:12.385Z,13.52
2022-11-03T18:19:16.035Z,10.43
2022-11-03T18:21:21.351Z,7.53
2022-11-03T18:23:29.895Z,19.33
2022-11-03T18:25:31.507Z,19.45
2022-11-03T18:27:33.104Z,28.08
2022-11-03T18:29:34.706Z,24.52
2022-11-03T18:31:46.657Z,13.48
2022-11-03T18:33:48.728Z,30.55
2022-11-03T18:35:51.100Z,10.63
2022-11-03T18:37:52.851Z,6.45
2022-11-03T18:39:54.552Z,19.75
2022-11-03T18:41:56.317Z,20.67
2022-11-03T18:43:58.210Z,10.40
2022-11-03T18:45:59.910Z,22.77
2022-11-03T18:48:01.506Z,20.83
2022-11-03T18:50:03.429Z,6.95
2022-11-03T18:52:12.934Z,16.25
2022-11-03T18:56:21.168Z,14.40
2022-11-03T18:58:24.875Z,11.30
2022-11-03T19:00:26.576Z,8.05
2022-11-03T19:02:28.311Z,11.02
2022-11-03T19:04:31.761Z,16.80
2022-11-03T19:06:33.717Z,13.43
2022-11-03T19:08:36.565Z,13.85
2022-11-03T19:10:39.944Z,8.40
2022-11-03T19:12:43.735Z,10.32
2022-11-03T19:14:47.679Z,5.88
2022-11-03T19:17:17.095Z,9.90
2022-11-03T19:19:14.598Z,9.38
2022-11-03T19:21:25.338Z,6.78
2022-11-03T19:23:27.000Z,4.55
2022-11-03T19:25:28.616Z,11.85
2022-11-03T19:27:35.142Z,8.18
2022-11-03T19:29:39.903Z,7.57
2022-11-03T19:31:45.323Z,8.85
2022-11-03T19:33:47.936Z,21.00
2022-11-03T19:35:49.937Z,4.20
2022-11-03T19:38:05.267Z,8.35
2022-11-03T19:40:11.591Z,11.00
2022-11-03T19:42:27.517Z,8.77
2022-11-03T19:44:29.178Z,5.63
2022-11-03T19:46:30.863Z,8.90
2022-11-03T19:48:34.231Z,5.65
2022-11-03T19:50:36.871Z,4.22
2022-11-03T19:52:38.687Z,5.68
2022-11-03T19:54:42.173Z,5.18
2022-11-03T19:56:46.394Z,4.85
2022-11-03T19:58:48.032Z,5.50
2022-11-03T20:00:50.660Z,3.40
2022-11-03T20:02:52.390Z,6.18
2022-11-03T20:04:54.066Z,3.20
2022-11-03T20:06:56.713Z,5.97
2022-11-03T20:08:58.355Z,2.47
2022-11-03T20:11:00.514Z,5.90
2022-11-03T20:13:02.570Z,4.20
2022-11-03T20:15:17.585Z,7.35
2022-11-03T20:17:21.582Z,2.22
2022-11-03T20:19:23.170Z,3.67
2022-11-03T20:21:27.855Z,4.75
2022-11-03T20:23:35.521Z,5.25
2022-11-03T20:25:37.819Z,5.20
2022-11-03T20:27:39.464Z,4.72
2022-11-03T20:29:41.293Z,3.30
2022-11-03T20:31:44.726Z,4.93
2022-11-03T20:33:46.455Z,14.82
2022-11-03T20:35:49.389Z,4.03
2022-11-03T20:37:54.614Z,7.03
2022-11-03T20:39:56.277Z,3.50
2022-11-03T20:41:57.928Z,5.05
2022-11-03T20:43:59.567Z,6.18
2022-11-03T20:46:01.441Z,4.35
2022-11-03T20:48:03.280Z,2.67
2022-11-03T20:50:05.241Z,4.70
2022-11-03T20:52:12.063Z,2.53
2022-11-03T20:54:21.350Z,2.85
2022-11-03T20:56:25.257Z,2.85
2022-11-03T20:58:26.953Z,2.40
2022-11-03T21:00:28.541Z,3.40
2022-11-03T21:02:30.203Z,4.57
2022-11-03T21:04:32.462Z,2.58
2022-11-03T21:06:34.094Z,2.50
2022-11-03T21:08:35.679Z,2.13
2022-11-03T21:10:37.993Z,3.38
2022-11-03T21:12:40.175Z,3.53
2022-11-03T21:15:05.127Z,4.55
2022-11-03T21:17:31.907Z,2.45
2022-11-03T21:19:58.411Z,2.20
2022-11-03T21:22:00.462Z,2.75
2022-11-03T21:24:02.046Z,3.97
2022-11-03T21:26:04.443Z,2.35
2022-11-03T21:28:06.399Z,2.53
2022-11-03T21:30:10.008Z,3.58
2022-11-03T21:32:13.821Z,3.45
2022-11-03T21:34:15.418Z,2.22
2022-11-03T21:36:17.031Z,4.63
2022-11-03T21:38:18.719Z,2.03
2022-11-03T21:40:20.376Z,2.20
2022-11-03T21:42:40.615Z,2.53
2022-11-03T21:44:42.744Z,2.27
2022-11-03T21:46:44.580Z,3.70
2022-11-03T21:49:04.758Z,3.53
2022-11-03T21:51:06.342Z,1.95
2022-11-03T21:53:08.299Z,2.20
2022-11-03T21:55:10.377Z,2.22
2022-11-03T21:57:15.200Z,2.80
2022-11-03T21:59:16.946Z,2.88
2022-11-03T22:01:19.651Z,2.00
2022-11-03T22:03:21.356Z,2.38
2022-11-03T22:05:23.053Z,3.85
2022-11-03T22:07:25.033Z,3.17
2022-11-03T22:09:27.354Z,3.15
2022-11-03T22:11:28.961Z,2.10
2022-11-03T22:13:30.573Z,4.05
2022-11-03T22:15:50.967Z,3.35
2022-11-03T22:17:52.546Z,3.55
2022-11-03T22:20:12.703Z,2.05
2022-11-03T22:22:33.794Z,2.70
2022-11-03T22:24:55.219Z,2.45
2022-11-03T22:26:56.888Z,2.05
2022-11-03T22:29:17.613Z,2.72
2022-11-03T22:31:38.045Z,1.88
2022-11-03T22:33:58.547Z,3.85
2022-11-03T22:36:21.909Z,2.13
2022-11-03T22:38:43.741Z,1.80
2022-11-03T22:41:07.058Z,1.77
2022-11-03T22:43:27.974Z,1.98
2022-11-03T22:45:48.454Z,2.40
2022-11-03T22:47:56.857Z,2.25
2022-11-03T22:49:58.513Z,2.13
2022-11-03T22:52:00.123Z,2.80
2022-11-03T22:54:10.827Z,2.10
2022-11-03T22:56:12.411Z,2.08
2022-11-03T22:58:14.083Z,2.13
2022-11-03T23:00:16.079Z,1.80
2022-11-03T23:02:17.758Z,2.38
2022-11-03T23:04:19.690Z,1.98
2022-11-03T23:06:23.321Z,3.85
2022-11-03T23:08:24.963Z,2.47
2022-11-03T23:10:28.359Z,1.67
2022-11-03T23:12:30.943Z,2.10
2022-11-03T23:15:01.915Z,2.00
2022-11-03T23:17:03.518Z,3.63
2022-11-03T23:19:24.852Z,2.53
2022-11-03T23:21:28.171Z,2.95
2022-11-03T23:23:48.726Z,1.70
2022-11-03T23:25:50.327Z,1.70
2022-11-03T23:27:53.104Z,1.73
2022-11-03T23:29:54.807Z,1.83
2022-11-03T23:31:59.825Z,1.65
2022-11-03T23:34:01.608Z,1.45
2022-11-03T23:36:05.170Z,1.40
2022-11-03T23:38:07.151Z,1.83
2022-11-03T23:40:09.577Z,2.42
2022-11-03T23:42:11.165Z,2.15
2022-11-03T23:44:16.308Z,1.70
2022-11-03T23:46:39.566Z,2.20
2022-11-03T23:48:47.756Z,1.60
2022-11-03T23:50:49.346Z,1.80
2022-11-03T23:52:50.932Z,4.07
2022-11-03T23:54:52.506Z,1.75
2022-11-03T23:57:13.014Z,1.77
2022-11-03T23:59:16.377Z,1.80
